createdAt,value
2016-08-01T00:00:08.621Z,16.73
2016-08-01T00:01:08.624Z,16.73
2016-08-01T00:02:08.629Z,16.66
2016-08-01T00:03:08.625Z,16.65
2016-08-01T00:04:08.625Z,16.68
2016-08-01T00:05:08.629Z,16.64
2016-08-01T00:06:08.637Z,16.62
2016-08-01T00:07:08.633Z,16.61
2016-08-01T00:08:08.629Z,16.61
2016-08-01T00:09:08.634Z,16.57
2016-08-01T00:10:08.632Z,16.59
2016-08-01T00:11:08.646Z,16.58
2016-08-01T00:12:08.632Z,16.61
2016-08-01T00:13:08.633Z,16.66
2016-08-01T00:14:08.641Z,16.58
2016-08-01T00:15:08.638Z,16.65
2016-08-01T00:16:08.638Z,16.66
2016-08-01T00:17:08.637Z,16.68
2016-08-01T00:18:08.642Z,16.65
2016-08-01T00:19:08.641Z,16.66
2016-08-01T00:20:08.641Z,16.62
2016-08-01T00:21:08.641Z,16.64
2016-08-01T00:22:08.654Z,16.76
2016-08-01T00:23:08.645Z,16.65
2016-08-01T00:24:08.646Z,16.72
2016-08-01T00:25:08.646Z,16.69
2016-08-01T00:26:08.651Z,16.69
2016-08-01T00:27:08.650Z,16.74
2016-08-01T00:28:08.658Z,16.74
2016-08-01T00:29:08.654Z,16.72
2016-08-01T00:30:08.654Z,16.73
2016-08-01T00:31:08.654Z,16.79
2016-08-01T00:32:08.658Z,16.76
2016-08-01T00:33:08.654Z,16.8
2016-08-01T00:34:08.654Z,16.74
2016-08-01T00:35:08.674Z,16.69
2016-08-01T00:36:08.658Z,16.79
2016-08-01T00:37:08.659Z,16.74
2016-08-01T00:38:08.659Z,16.74
2016-08-01T00:39:08.658Z,16.74
2016-08-01T00:40:08.662Z,16.65
2016-08-01T00:41:08.662Z,16.59
2016-08-01T00:42:08.662Z,16.54
2016-08-01T00:43:08.662Z,16.54
2016-08-01T00:44:08.667Z,16.41
2016-08-01T00:45:08.667Z,16.4
2016-08-01T00:46:08.667Z,16.29
2016-08-01T00:47:08.667Z,16.26
2016-08-01T00:48:08.671Z,16.25
2016-08-01T00:49:08.672Z,16.24
2016-08-01T00:50:08.680Z,16.12
2016-08-01T00:51:08.671Z,16.06
2016-08-01T00:52:08.688Z,16.1
2016-08-01T00:53:08.676Z,16.13
2016-08-01T00:54:08.679Z,16.09
2016-08-01T00:55:08.676Z,16.05
2016-08-01T00:56:08.679Z,16.08
2016-08-01T00:57:08.679Z,16.05
2016-08-01T00:58:08.680Z,15.99
2016-08-01T00:59:08.680Z,16
2016-08-01T01:00:08.684Z,16
2016-08-01T01:01:08.684Z,16.02
2016-08-01T01:02:08.684Z,16.03
2016-08-01T01:03:08.688Z,15.99
2016-08-01T01:04:08.684Z,15.91
2016-08-01T01:05:08.687Z,15.96
2016-08-01T01:06:08.688Z,15.92
2016-08-01T01:07:08.688Z,15.92
2016-08-01T01:08:08.693Z,15.92
2016-08-01T01:09:08.688Z,15.85
2016-08-01T01:10:08.692Z,15.85
2016-08-01T01:11:08.701Z,15.83
2016-08-01T01:12:08.692Z,15.83
2016-08-01T01:13:08.693Z,15.83
2016-08-01T01:14:08.697Z,15.83
2016-08-01T01:15:08.696Z,15.8
2016-08-01T01:16:08.696Z,15.83
2016-08-01T01:17:08.697Z,15.8
2016-08-01T01:18:08.696Z,15.85
2016-08-01T01:19:08.705Z,15.85
2016-08-01T01:20:08.700Z,15.83
2016-08-01T01:21:08.701Z,15.85
2016-08-01T01:22:08.701Z,15.85
2016-08-01T01:23:08.700Z,15.91
2016-08-01T01:24:08.705Z,15.91
2016-08-01T01:25:08.717Z,15.85
2016-08-01T01:26:08.705Z,15.96
2016-08-01T01:27:08.709Z,15.9
2016-08-01T01:28:08.709Z,15.92
2016-08-01T01:29:08.719Z,15.94
2016-08-01T01:30:08.709Z,15.94
2016-08-01T01:31:08.709Z,16
2016-08-01T01:32:08.709Z,16.03
2016-08-01T01:33:08.713Z,15.96
2016-08-01T01:34:08.712Z,15.98
2016-08-01T01:35:08.713Z,15.98
2016-08-01T01:36:08.713Z,16.02
2016-08-01T01:37:08.712Z,16.03
2016-08-01T01:38:08.717Z,16.09
2016-08-01T01:39:08.717Z,16.1
2016-08-01T01:40:08.720Z,16.09
2016-08-01T01:41:08.717Z,16.06
2016-08-01T01:42:08.717Z,16.1
2016-08-01T01:43:08.721Z,16.09
2016-08-01T01:44:08.721Z,16.17
2016-08-01T01:45:08.721Z,16.24
2016-08-01T01:46:08.720Z,16.24
2016-08-01T01:47:08.780Z,16.26
2016-08-01T01:48:08.725Z,16.24
2016-08-01T01:49:08.725Z,16.24
2016-08-01T01:50:08.725Z,16.24
2016-08-01T01:51:08.734Z,16.17
2016-08-01T01:52:08.725Z,16.09
2016-08-01T01:53:08.725Z,16.08
2016-08-01T01:54:08.009Z,16.09
2016-08-01T01:55:08.729Z,16.17
2016-08-01T01:56:08.728Z,16.1
2016-08-01T01:57:08.730Z,16.03
2016-08-01T01:58:08.734Z,16.1
2016-08-01T01:59:08.733Z,16.03
2016-08-01T02:00:08.734Z,15.99
2016-08-01T02:01:08.734Z,16.02
2016-08-01T02:02:08.734Z,16
2016-08-01T02:03:08.734Z,15.94
2016-08-01T02:04:08.737Z,15.91
2016-08-01T02:05:08.738Z,15.9
2016-08-01T02:06:08.737Z,15.84
2016-08-01T02:07:08.743Z,15.8
2016-08-01T02:08:08.742Z,15.85
2016-08-01T02:09:08.741Z,15.85
2016-08-01T02:10:08.749Z,15.9
2016-08-01T02:11:08.741Z,15.87
2016-08-01T02:12:08.741Z,15.9
2016-08-01T02:13:08.741Z,15.91
2016-08-01T02:14:08.740Z,15.85
2016-08-01T02:15:08.749Z,15.85
2016-08-01T02:16:08.749Z,15.88
2016-08-01T02:17:08.745Z,15.87
2016-08-01T02:18:08.746Z,15.88
2016-08-01T02:19:08.751Z,15.88
2016-08-01T02:20:08.750Z,15.83
2016-08-01T02:21:08.749Z,15.78
2016-08-01T02:22:08.026Z,15.8
2016-08-01T02:23:08.750Z,15.84
2016-08-01T02:24:08.754Z,15.85
2016-08-01T02:25:08.753Z,15.73
2016-08-01T02:26:08.753Z,15.78
2016-08-01T02:27:08.754Z,15.76
2016-08-01T02:28:08.754Z,15.78
2016-08-01T02:29:08.753Z,15.83
2016-08-01T02:30:08.761Z,15.75
2016-08-01T02:31:08.757Z,15.78
2016-08-01T02:32:08.758Z,15.75
2016-08-01T02:33:08.758Z,15.83
2016-08-01T02:34:08.762Z,15.67
2016-08-01T02:35:08.762Z,15.65
2016-08-01T02:36:08.762Z,15.78
2016-08-01T02:37:08.766Z,15.63
2016-08-01T02:38:08.770Z,15.75
2016-08-01T02:39:08.762Z,15.73
2016-08-01T02:40:08.762Z,15.65
2016-08-01T02:41:08.774Z,15.78
2016-08-01T02:42:08.767Z,15.81
2016-08-01T02:43:08.767Z,15.6
2016-08-01T02:44:08.046Z,15.73
2016-08-01T02:45:08.767Z,15.72
2016-08-01T02:46:08.771Z,15.8
2016-08-01T02:47:08.782Z,15.75
2016-08-01T02:48:08.771Z,15.75
2016-08-01T02:49:08.306Z,15.81
2016-08-01T02:50:08.771Z,15.72
2016-08-01T02:51:08.771Z,15.81
2016-08-01T02:52:08.776Z,15.75
2016-08-01T02:53:08.775Z,15.67
2016-08-01T02:54:08.775Z,15.67
2016-08-01T02:55:08.775Z,15.8
2016-08-01T02:56:08.776Z,15.78
2016-08-01T02:57:08.780Z,15.72
2016-08-01T02:58:08.787Z,15.81
2016-08-01T02:59:08.063Z,15.75
2016-08-01T03:00:08.796Z,15.67
2016-08-01T03:01:08.779Z,15.73
2016-08-01T03:02:08.779Z,15.76
2016-08-01T03:03:08.784Z,15.78
2016-08-01T03:05:08.792Z,15.76
2016-08-01T03:06:08.796Z,15.72
2016-08-01T03:07:08.783Z,15.62
2016-08-01T03:08:08.068Z,15.72
2016-08-01T03:09:08.788Z,15.69
2016-08-01T03:10:08.787Z,15.62
2016-08-01T03:11:08.792Z,15.76
2016-08-01T03:12:08.789Z,15.75
2016-08-01T03:13:08.788Z,15.78
2016-08-01T03:14:08.788Z,15.73
2016-08-01T03:15:08.792Z,15.81
2016-08-01T03:16:08.798Z,15.85
2016-08-01T03:17:08.796Z,15.84
2016-08-01T03:18:08.792Z,15.88
2016-08-01T03:19:08.793Z,15.88
2016-08-01T03:20:08.792Z,15.87
2016-08-01T03:21:08.797Z,15.85
2016-08-01T03:22:08.796Z,15.84
2016-08-01T03:23:08.796Z,15.84
2016-08-01T03:24:08.796Z,15.83
2016-08-01T03:25:08.077Z,15.75
2016-08-01T03:26:08.800Z,15.75
2016-08-01T03:27:08.808Z,15.75
2016-08-01T03:28:08.800Z,15.73
2016-08-01T03:29:08.801Z,15.72
2016-08-01T03:30:08.801Z,15.76
2016-08-01T03:31:08.800Z,15.75
2016-08-01T03:32:08.804Z,15.75
2016-08-01T03:33:08.804Z,15.75
2016-08-01T03:34:08.804Z,15.83
2016-08-01T03:35:08.812Z,15.85
2016-08-01T03:36:08.805Z,15.73
2016-08-01T03:37:08.809Z,15.85
2016-08-01T03:38:08.805Z,15.85
2016-08-01T03:39:08.808Z,15.9
2016-08-01T03:40:08.809Z,15.88
2016-08-01T03:41:08.808Z,15.85
2016-08-01T03:42:08.812Z,15.99
2016-08-01T03:43:08.089Z,15.96
2016-08-01T03:44:08.812Z,15.85
2016-08-01T03:45:08.808Z,15.94
2016-08-01T03:46:08.813Z,15.99
2016-08-01T03:47:08.813Z,16.03
2016-08-01T03:48:08.813Z,15.99
2016-08-01T03:49:08.813Z,16
2016-08-01T03:50:08.817Z,15.98
2016-08-01T03:51:08.817Z,16.02
2016-08-01T03:52:08.817Z,15.98
2016-08-01T03:53:08.817Z,16
2016-08-01T03:54:08.817Z,16.06
2016-08-01T03:55:08.818Z,16.08
2016-08-01T03:56:08.817Z,16.12
2016-08-01T03:57:08.097Z,16.08
2016-08-01T03:58:08.821Z,16.08
2016-08-01T03:59:08.821Z,16.12
2016-08-01T04:00:08.822Z,16.09
2016-08-01T04:01:08.823Z,16.12
2016-08-01T04:02:08.821Z,16.1
2016-08-01T04:03:08.817Z,16.1
2016-08-01T04:04:08.826Z,16.12
2016-08-01T04:05:08.830Z,16.09
2016-08-01T04:06:08.834Z,16.09
2016-08-01T04:07:08.826Z,16.09
2016-08-01T04:08:08.826Z,16.06
2016-08-01T04:09:08.839Z,16.1
2016-08-01T04:10:08.831Z,16.09
2016-08-01T04:11:08.830Z,16.13
2016-08-01T04:12:08.830Z,16.09
2016-08-01T04:13:08.855Z,16.1
2016-08-01T04:14:08.831Z,16.13
2016-08-01T04:15:08.835Z,16.12
2016-08-01T04:16:08.847Z,16.09
2016-08-01T04:17:08.839Z,16.21
2016-08-01T04:18:08.839Z,16.13
2016-08-01T04:19:08.835Z,16.24
2016-08-01T04:20:08.835Z,16.16
2016-08-01T04:21:08.844Z,16.18
2016-08-01T04:22:08.843Z,16.18
2016-08-01T04:23:08.839Z,16.17
2016-08-01T04:24:08.839Z,16.16
2016-08-01T04:25:08.843Z,16.09
2016-08-01T04:26:08.839Z,16.08
2016-08-01T04:27:08.839Z,16.1
2016-08-01T04:28:08.851Z,16.13
2016-08-01T04:29:08.851Z,16.09
2016-08-01T04:30:08.847Z,16.1
2016-08-01T04:31:08.843Z,16.1
2016-08-01T04:32:08.843Z,16.18
2016-08-01T04:33:08.843Z,16.1
2016-08-01T04:34:08.843Z,16.08
2016-08-01T04:35:08.846Z,16.06
2016-08-01T04:36:08.855Z,16.12
2016-08-01T04:37:08.863Z,16.13
2016-08-01T04:38:08.851Z,16.12
2016-08-01T04:39:08.847Z,16.1
2016-08-01T04:40:08.847Z,16.1
2016-08-01T04:41:08.851Z,16.06
2016-08-01T04:42:08.851Z,16.17
2016-08-01T04:43:08.856Z,16.18
2016-08-01T04:44:08.851Z,16.17
2016-08-01T04:45:08.860Z,16.21
2016-08-01T04:46:08.852Z,16.25
2016-08-01T04:47:08.851Z,16.28
2016-08-01T04:48:08.856Z,16.32
2016-08-01T04:49:08.856Z,16.32
2016-08-01T04:50:08.855Z,16.36
2016-08-01T04:51:08.859Z,16.41
2016-08-01T04:52:08.856Z,16.41
2016-08-01T04:53:08.855Z,16.46
2016-08-01T04:54:08.860Z,16.51
2016-08-01T04:55:08.860Z,16.49
2016-08-01T04:56:08.859Z,16.54
2016-08-01T04:57:08.860Z,16.57
2016-08-01T04:58:08.860Z,16.62
2016-08-01T04:59:08.859Z,16.65
2016-08-01T05:00:08.860Z,16.65
2016-08-01T05:01:08.864Z,16.79
2016-08-01T05:02:08.864Z,16.69
2016-08-01T05:03:08.864Z,16.73
2016-08-01T05:04:08.864Z,16.73
2016-08-01T05:05:08.867Z,16.94
2016-08-01T05:06:08.864Z,16.92
2016-08-01T05:07:09.268Z,16.94
2016-08-01T05:08:08.868Z,17.05
2016-08-01T05:09:08.868Z,17.04
2016-08-01T05:10:08.869Z,17.16
2016-08-01T05:11:08.868Z,17.14
2016-08-01T05:12:08.873Z,17.22
2016-08-01T05:13:08.868Z,17.31
2016-08-01T05:14:08.876Z,17.37
2016-08-01T05:15:08.877Z,17.31
2016-08-01T05:16:08.873Z,17.42
2016-08-01T05:17:08.877Z,17.68
2016-08-01T05:18:08.880Z,17.72
2016-08-01T05:19:08.873Z,17.79
2016-08-01T05:20:08.873Z,18.02
2016-08-01T05:21:08.877Z,17.95
2016-08-01T05:22:08.877Z,18.13
2016-08-01T05:23:08.877Z,18.09
2016-08-01T05:24:08.877Z,18.3
2016-08-01T05:25:08.881Z,18.27
2016-08-01T05:26:08.881Z,18.48
2016-08-01T05:27:08.881Z,18.64
2016-08-01T05:28:08.877Z,19.2
2016-08-01T05:29:08.881Z,19.97
2016-08-01T05:30:08.881Z,20.89
2016-08-01T05:31:08.885Z,21.89
2016-08-01T05:32:08.882Z,22.86
2016-08-01T05:33:08.885Z,23.63
2016-08-01T05:34:08.886Z,24.03
2016-08-01T05:35:08.885Z,24.1
2016-08-01T05:36:08.888Z,24.01
2016-08-01T05:37:08.886Z,23.7
2016-08-01T05:38:08.889Z,23.34
2016-08-01T05:39:08.890Z,22.88
2016-08-01T05:40:08.893Z,22.55
2016-08-01T05:41:08.890Z,22.21
2016-08-01T05:42:08.889Z,21.91
2016-08-01T05:43:08.894Z,21.58
2016-08-01T05:44:08.897Z,21.58
2016-08-01T05:45:08.893Z,21.92
2016-08-01T05:46:08.894Z,22.53
2016-08-01T05:47:08.893Z,23.26
2016-08-01T05:48:08.894Z,24.06
2016-08-01T05:49:08.894Z,24.88
2016-08-01T05:50:08.179Z,25.55
2016-08-01T05:51:08.897Z,25.83
2016-08-01T05:52:08.898Z,25.88
2016-08-01T05:53:08.898Z,25.8
2016-08-01T05:54:08.902Z,25.54
2016-08-01T05:55:08.907Z,25.19
2016-08-01T05:56:08.182Z,24.92
2016-08-01T05:57:08.902Z,24.68
2016-08-01T05:58:08.902Z,24.22
2016-08-01T05:59:08.907Z,24
2016-08-01T06:00:08.906Z,23.95
2016-08-01T06:01:08.907Z,23.79
2016-08-01T06:02:08.907Z,23.74
2016-08-01T06:03:08.909Z,23.62
2016-08-01T06:04:08.907Z,23.55
2016-08-01T06:05:08.910Z,23.34
2016-08-01T06:06:08.910Z,23.26
2016-08-01T06:07:08.911Z,23.11
2016-08-01T06:08:08.914Z,23.04
2016-08-01T06:09:08.914Z,22.86
2016-08-01T06:10:08.915Z,22.78
2016-08-01T06:11:08.914Z,22.71
2016-08-01T06:12:08.914Z,22.62
2016-08-01T06:13:08.915Z,22.51
2016-08-01T06:14:08.918Z,22.47
2016-08-01T06:15:08.918Z,22.36
2016-08-01T06:16:08.927Z,22.36
2016-08-01T06:17:08.918Z,22.19
2016-08-01T06:18:08.919Z,22.14
2016-08-01T06:19:08.919Z,22.06
2016-08-01T06:20:08.923Z,21.92
2016-08-01T06:21:08.922Z,21.91
2016-08-01T06:22:08.924Z,21.74
2016-08-01T06:23:08.923Z,21.7
2016-08-01T06:24:08.927Z,21.63
2016-08-01T06:25:08.927Z,21.68
2016-08-01T06:26:08.931Z,21.6
2016-08-01T06:27:08.938Z,21.63
2016-08-01T06:28:08.927Z,21.66
2016-08-01T06:29:08.947Z,21.51
2016-08-01T06:30:08.935Z,21.51
2016-08-01T06:31:08.932Z,21.59
2016-08-01T06:32:08.930Z,21.62
2016-08-01T06:33:08.931Z,21.63
2016-08-01T06:34:08.936Z,21.56
2016-08-01T06:35:08.935Z,21.69
2016-08-01T06:36:08.935Z,21.65
2016-08-01T06:37:08.955Z,21.59
2016-08-01T06:38:08.939Z,21.77
2016-08-01T06:39:08.940Z,21.83
2016-08-01T06:40:08.939Z,21.89
2016-08-01T06:41:08.940Z,21.96
2016-08-01T06:42:08.940Z,22.12
2016-08-01T06:43:08.940Z,22.15
2016-08-01T06:44:08.940Z,22.15
2016-08-01T06:45:08.947Z,22.04
2016-08-01T06:46:08.943Z,22.21
2016-08-01T06:47:08.943Z,22.19
2016-08-01T06:48:08.944Z,22.41
2016-08-01T06:49:08.947Z,22.92
2016-08-01T06:50:08.947Z,23.85
2016-08-01T06:51:08.947Z,25.09
2016-08-01T06:52:08.947Z,26.49
2016-08-01T06:53:08.948Z,27.81
2016-08-01T06:54:08.955Z,29
2016-08-01T06:55:08.951Z,30.14
2016-08-01T06:56:08.951Z,31.37
2016-08-01T06:57:08.951Z,32.35
2016-08-01T06:58:08.966Z,33.19
2016-08-01T06:59:08.955Z,33.98
2016-08-01T07:00:08.955Z,34.88
2016-08-01T07:01:08.956Z,35.41
2016-08-01T07:02:08.956Z,35.87
2016-08-01T07:03:08.955Z,36.22
2016-08-01T07:04:08.964Z,36.48
2016-08-01T07:05:08.960Z,36.78
2016-08-01T07:06:08.960Z,37.09
2016-08-01T07:07:08.964Z,37.29
2016-08-01T07:08:08.964Z,37.68
2016-08-01T07:09:08.968Z,37.92
2016-08-01T07:10:08.964Z,38.41
2016-08-01T07:11:08.965Z,38.62
2016-08-01T07:12:08.968Z,38.79
2016-08-01T07:13:08.968Z,39.08
2016-08-01T07:14:08.973Z,39.41
2016-08-01T07:15:08.973Z,39.56
2016-08-01T07:16:08.971Z,39.71
2016-08-01T07:17:08.973Z,39.88
2016-08-01T07:18:08.971Z,39.97
2016-08-01T07:19:08.980Z,40.1
2016-08-01T07:20:08.976Z,40.29
2016-08-01T07:21:08.981Z,40.44
2016-08-01T07:22:08.981Z,40.28
2016-08-01T07:23:08.981Z,40.12
2016-08-01T07:24:08.981Z,40.05
2016-08-01T07:25:08.989Z,39.93
2016-08-01T07:26:08.981Z,39.7
2016-08-01T07:27:08.989Z,39.44
2016-08-01T07:28:08.993Z,39.03
2016-08-01T07:29:08.985Z,38.72
2016-08-01T07:30:08.989Z,38.19
2016-08-01T07:31:08.989Z,38.05
2016-08-01T07:32:08.989Z,38.28
2016-08-01T07:33:08.989Z,37.95
2016-08-01T07:34:08.990Z,37.82
2016-08-01T07:35:08.998Z,37.92
2016-08-01T07:36:08.998Z,38.13
2016-08-01T07:37:08.994Z,38.32
2016-08-01T07:38:08.997Z,38.16
2016-08-01T07:39:08.998Z,38.07
2016-08-01T07:40:08.998Z,37.88
2016-08-01T07:41:09.002Z,37.56
2016-08-01T07:42:09.013Z,37.07
2016-08-01T07:43:09.014Z,36.6
2016-08-01T07:44:09.009Z,36.32
2016-08-01T07:45:09.006Z,36.2
2016-08-01T07:46:09.490Z,36.18
2016-08-01T07:47:09.264Z,36.47
2016-08-01T07:48:09.010Z,36.48
2016-08-01T07:49:09.010Z,36.31
2016-08-01T07:50:08.549Z,36.22
2016-08-01T07:51:09.068Z,36.22
2016-08-01T07:52:09.014Z,36.47
2016-08-01T07:53:09.206Z,36.75
2016-08-01T07:54:09.018Z,36.81
2016-08-01T07:55:09.018Z,37.18
2016-08-01T07:56:09.017Z,37.19
2016-08-01T07:57:09.022Z,37.48
2016-08-01T07:58:09.026Z,37.54
2016-08-01T07:59:09.022Z,37.64
2016-08-01T08:00:09.026Z,37.57
2016-08-01T08:01:09.026Z,37.1
2016-08-01T08:02:09.027Z,36.85
2016-08-01T08:03:09.030Z,36.62
2016-08-01T08:04:09.030Z,36.32
2016-08-01T08:06:09.033Z,35.82
2016-08-01T08:07:09.035Z,35.61
2016-08-01T08:08:09.043Z,35.5
2016-08-01T08:09:09.039Z,35.71
2016-08-01T08:10:09.054Z,36.17
2016-08-01T08:11:09.042Z,36.54
2016-08-01T08:12:09.043Z,37
2016-08-01T08:13:09.042Z,37.41
2016-08-01T08:14:09.060Z,37.66
2016-08-01T08:15:09.047Z,37.58
2016-08-01T08:16:09.050Z,37.22
2016-08-01T08:17:09.050Z,36.89
2016-08-01T08:18:09.050Z,36.48
2016-08-01T08:19:09.054Z,36.38
2016-08-01T08:20:09.054Z,36.11
2016-08-01T08:21:09.062Z,35.68
2016-08-01T08:22:09.059Z,35.44
2016-08-01T08:23:09.059Z,35.25
2016-08-01T08:24:09.063Z,35.52
2016-08-01T08:25:09.063Z,35.69
2016-08-01T08:26:08.350Z,36
2016-08-01T08:27:09.066Z,36.24
2016-08-01T08:28:09.067Z,36.32
2016-08-01T08:29:09.071Z,36.14
2016-08-01T08:30:09.074Z,36.08
2016-08-01T08:31:09.071Z,35.91
2016-08-01T08:32:09.075Z,35.68
2016-08-01T08:33:09.076Z,35.52
2016-08-01T08:34:09.088Z,35.38
2016-08-01T08:35:09.079Z,35.26
2016-08-01T08:36:09.083Z,35.1
2016-08-01T08:37:09.083Z,34.93
2016-08-01T08:38:09.083Z,34.62
2016-08-01T08:39:09.087Z,34.76
2016-08-01T08:40:09.087Z,35
2016-08-01T08:41:09.092Z,35.23
2016-08-01T08:42:09.091Z,35.74
2016-08-01T08:43:09.091Z,35.84
2016-08-01T08:44:09.095Z,35.82
2016-08-01T08:45:09.096Z,35.88
2016-08-01T08:46:09.108Z,36.14
2016-08-01T08:47:09.099Z,36.18
2016-08-01T08:48:09.104Z,36.44
2016-08-01T08:49:09.104Z,36.45
2016-08-01T08:50:09.107Z,36.22
2016-08-01T08:51:09.115Z,35.93
2016-08-01T08:52:09.108Z,35.57
2016-08-01T08:53:09.111Z,35.45
2016-08-01T08:54:09.112Z,35.34
2016-08-01T08:55:09.120Z,35.39
2016-08-01T08:56:09.124Z,35.35
2016-08-01T08:57:09.120Z,35.39
2016-08-01T08:58:09.124Z,35.25
2016-08-01T08:59:09.124Z,34.79
2016-08-01T09:00:09.123Z,34.26
2016-08-01T09:01:09.140Z,33.85
2016-08-01T09:02:09.128Z,33.36
2016-08-01T09:03:09.127Z,32.91
2016-08-01T09:04:09.131Z,32.31
2016-08-01T09:05:09.131Z,31.81
2016-08-01T09:06:09.147Z,31.37
2016-08-01T09:07:09.148Z,30.88
2016-08-01T09:08:09.136Z,30.55
2016-08-01T09:09:09.140Z,30.21
2016-08-01T09:10:09.139Z,29.98
2016-08-01T09:11:09.143Z,29.68
2016-08-01T09:12:09.143Z,29.46
2016-08-01T09:13:09.160Z,29.27
2016-08-01T09:14:09.144Z,29.09
2016-08-01T09:15:09.148Z,28.84
2016-08-01T09:16:09.152Z,28.57
2016-08-01T09:17:09.155Z,28.47
2016-08-01T09:18:09.155Z,28.38
2016-08-01T09:19:09.164Z,28.22
2016-08-01T09:20:09.161Z,28.13
2016-08-01T09:21:09.176Z,28.03
2016-08-01T09:22:09.160Z,27.86
2016-08-01T09:23:09.164Z,27.78
2016-08-01T09:24:09.163Z,27.78
2016-08-01T09:25:09.169Z,27.64
2016-08-01T09:26:09.168Z,27.57
2016-08-01T09:27:09.184Z,27.55
2016-08-01T09:28:09.177Z,27.57
2016-08-01T09:29:09.178Z,27.53
2016-08-01T09:30:09.176Z,27.52
2016-08-01T09:31:09.176Z,27.57
2016-08-01T09:32:09.181Z,27.55
2016-08-01T09:33:09.180Z,27.45
2016-08-01T09:34:09.185Z,27.29
2016-08-01T09:35:09.184Z,27.16
2016-08-01T09:36:08.468Z,27.11
2016-08-01T09:37:09.192Z,27.07
2016-08-01T09:38:09.200Z,26.97
2016-08-01T09:39:09.193Z,27
2016-08-01T09:40:09.193Z,27.07
2016-08-01T09:41:09.192Z,27.08
2016-08-01T09:42:09.197Z,27.05
2016-08-01T09:43:09.196Z,27.04
2016-08-01T09:44:09.201Z,26.89
2016-08-01T09:45:09.205Z,26.81
2016-08-01T09:46:09.205Z,26.7
2016-08-01T09:47:09.207Z,26.7
2016-08-01T09:48:09.208Z,26.73
2016-08-01T09:49:09.210Z,26.91
2016-08-01T09:50:09.210Z,27.05
2016-08-01T09:51:09.213Z,27.11
2016-08-01T09:52:09.213Z,27.25
2016-08-01T09:53:09.221Z,27.52
2016-08-01T09:54:09.217Z,27.78
2016-08-01T09:55:09.217Z,27.94
2016-08-01T09:56:09.221Z,28.09
2016-08-01T09:57:09.222Z,28.12
2016-08-01T09:58:09.226Z,28.04
2016-08-01T09:59:09.237Z,28.15
2016-08-01T10:00:09.226Z,27.95
2016-08-01T10:01:09.231Z,27.83
2016-08-01T10:02:09.230Z,27.71
2016-08-01T10:03:09.640Z,27.44
2016-08-01T10:04:09.250Z,27.3
2016-08-01T10:05:09.242Z,27.16
2016-08-01T10:06:09.237Z,27.08
2016-08-01T10:07:09.237Z,27.03
2016-08-01T10:08:09.244Z,26.98
2016-08-01T10:09:09.245Z,26.91
2016-08-01T10:10:09.259Z,26.88
2016-08-01T10:11:09.245Z,26.85
2016-08-01T10:12:08.530Z,26.82
2016-08-01T10:13:09.250Z,26.71
2016-08-01T10:14:09.249Z,26.6
2016-08-01T10:15:09.254Z,26.53
2016-08-01T10:16:09.254Z,26.39
2016-08-01T10:17:09.254Z,26.27
2016-08-01T10:18:09.258Z,26.23
2016-08-01T10:19:09.266Z,26.18
2016-08-01T10:20:09.266Z,26.13
2016-08-01T10:21:09.262Z,25.99
2016-08-01T10:22:09.266Z,25.98
2016-08-01T10:23:09.266Z,26.07
2016-08-01T10:24:09.274Z,25.96
2016-08-01T10:25:09.270Z,25.91
2016-08-01T10:26:09.270Z,25.86
2016-08-01T10:27:09.274Z,25.91
2016-08-01T10:28:09.274Z,25.96
2016-08-01T10:29:09.279Z,25.99
2016-08-01T10:30:09.282Z,26.06
2016-08-01T10:31:09.278Z,26.07
2016-08-01T10:32:09.282Z,26.15
2016-08-01T10:33:09.290Z,26.34
2016-08-01T10:34:09.286Z,26.59
2016-08-01T10:35:09.287Z,26.64
2016-08-01T10:36:09.287Z,26.85
2016-08-01T10:37:09.291Z,27.04
2016-08-01T10:38:09.298Z,27.18
2016-08-01T10:39:09.295Z,27.28
2016-08-01T10:40:09.307Z,27.28
2016-08-01T10:41:09.298Z,27.26
2016-08-01T10:42:09.298Z,27.33
2016-08-01T10:43:09.299Z,27.34
2016-08-01T10:44:09.304Z,27.45
2016-08-01T10:45:09.302Z,27.41
2016-08-01T10:46:09.307Z,27.45
2016-08-01T10:47:09.311Z,27.35
2016-08-01T10:48:09.307Z,27.29
2016-08-01T10:49:09.311Z,27.16
2016-08-01T10:50:09.315Z,27.08
2016-08-01T10:51:09.327Z,27.03
2016-08-01T10:52:09.319Z,27.03
2016-08-01T10:53:09.315Z,26.96
2016-08-01T10:54:09.343Z,26.93
2016-08-01T10:55:09.319Z,27.01
2016-08-01T10:56:09.319Z,26.96
2016-08-01T10:57:09.323Z,26.98
2016-08-01T10:58:09.323Z,26.92
2016-08-01T10:59:09.327Z,26.79
2016-08-01T11:00:09.327Z,26.83
2016-08-01T11:01:09.339Z,26.74
2016-08-01T11:02:09.332Z,26.78
2016-08-01T11:03:09.436Z,26.71
2016-08-01T11:04:09.344Z,26.79
2016-08-01T11:05:09.336Z,26.86
2016-08-01T11:06:09.343Z,26.89
2016-08-01T11:07:09.340Z,26.92
2016-08-01T11:08:09.348Z,27.01
2016-08-01T11:09:09.344Z,26.98
2016-08-01T11:10:09.348Z,27
2016-08-01T11:11:09.348Z,27
2016-08-01T11:12:09.349Z,26.93
2016-08-01T11:13:09.352Z,26.92
2016-08-01T11:14:09.352Z,27.01
2016-08-01T11:15:09.352Z,26.92
2016-08-01T11:16:09.356Z,26.92
2016-08-01T11:17:09.356Z,26.96
2016-08-01T11:18:09.360Z,26.82
2016-08-01T11:19:09.365Z,26.82
2016-08-01T11:20:09.364Z,26.81
2016-08-01T11:21:09.365Z,26.83
2016-08-01T11:22:09.364Z,26.83
2016-08-01T11:23:09.377Z,26.89
2016-08-01T11:24:09.373Z,26.88
2016-08-01T11:25:09.376Z,26.85
2016-08-01T11:26:09.373Z,26.86
2016-08-01T11:27:09.377Z,26.86
2016-08-01T11:28:09.388Z,26.86
2016-08-01T11:29:09.377Z,26.91
2016-08-01T11:30:09.380Z,26.79
2016-08-01T11:31:09.388Z,26.79
2016-08-01T11:32:09.384Z,26.71
2016-08-01T11:33:08.681Z,26.67
2016-08-01T11:34:09.380Z,26.53
2016-08-01T11:35:09.389Z,26.41
2016-08-01T11:36:09.388Z,26.36
2016-08-01T11:37:09.397Z,26.44
2016-08-01T11:38:09.393Z,26.44
2016-08-01T11:39:09.397Z,26.55
2016-08-01T11:40:09.398Z,26.55
2016-08-01T11:41:09.405Z,26.52
2016-08-01T11:42:09.401Z,26.51
2016-08-01T11:43:09.401Z,26.49
2016-08-01T11:44:09.405Z,26.36
2016-08-01T11:45:09.406Z,26.48
2016-08-01T11:46:09.409Z,26.42
2016-08-01T11:47:09.409Z,26.52
2016-08-01T11:48:09.409Z,26.56
2016-08-01T11:49:09.409Z,26.67
2016-08-01T11:50:09.414Z,26.67
2016-08-01T11:51:09.422Z,26.76
2016-08-01T11:52:09.417Z,26.89
2016-08-01T11:53:09.418Z,26.96
2016-08-01T11:54:09.421Z,27.03
2016-08-01T11:55:09.421Z,27.1
2016-08-01T11:56:09.426Z,27.28
2016-08-01T11:57:09.426Z,27.43
2016-08-01T11:58:09.429Z,27.53
2016-08-01T11:59:09.430Z,27.66
2016-08-01T12:00:09.442Z,27.78
2016-08-01T12:01:09.433Z,27.81
2016-08-01T12:02:09.435Z,27.88
2016-08-01T12:03:09.438Z,27.83
2016-08-01T12:04:09.438Z,27.88
2016-08-01T12:05:09.450Z,27.88
2016-08-01T12:06:09.442Z,27.93
2016-08-01T12:07:09.450Z,27.93
2016-08-01T12:08:08.726Z,27.85
2016-08-01T12:09:09.446Z,27.86
2016-08-01T12:10:09.450Z,27.9
2016-08-01T12:11:09.450Z,27.86
2016-08-01T12:12:09.454Z,27.9
2016-08-01T12:13:09.458Z,27.88
2016-08-01T12:14:09.454Z,27.68
2016-08-01T12:15:09.458Z,27.6
2016-08-01T12:16:09.459Z,27.53
2016-08-01T12:17:09.462Z,27.57
2016-08-01T12:18:09.462Z,27.63
2016-08-01T12:19:09.466Z,27.57
2016-08-01T12:20:09.474Z,27.48
2016-08-01T12:21:08.538Z,27.52
2016-08-01T12:22:09.470Z,27.43
2016-08-01T12:23:10.882Z,27.34
2016-08-01T12:26:20.861Z,27.05
2016-08-01T12:27:21.583Z,26.92
2016-08-01T12:28:21.586Z,26.83
2016-08-01T12:29:21.587Z,26.81
2016-08-01T12:30:21.589Z,26.66
2016-08-01T12:31:21.590Z,26.52
2016-08-01T12:32:21.590Z,26.56
2016-08-01T12:33:21.594Z,26.42
2016-08-01T12:34:21.598Z,26.36
2016-08-01T12:35:21.598Z,26.41
2016-08-01T12:36:21.599Z,26.27
2016-08-01T12:37:21.597Z,26.26
2016-08-01T12:38:21.602Z,26.19
2016-08-01T12:39:21.603Z,26.22
2016-08-01T12:40:21.606Z,26.15
2016-08-01T12:41:21.606Z,26.19
2016-08-01T12:42:21.614Z,26.29
2016-08-01T12:43:21.611Z,26.29
2016-08-01T12:44:21.611Z,26.34
2016-08-01T12:45:21.618Z,26.41
2016-08-01T12:46:21.616Z,26.45
2016-08-01T12:47:21.619Z,26.48
2016-08-01T12:48:21.619Z,26.49
2016-08-01T12:49:21.623Z,26.53
2016-08-01T12:50:21.623Z,26.45
2016-08-01T12:52:21.627Z,26.27
2016-08-01T12:53:21.631Z,26.3
2016-08-01T12:54:21.626Z,26.33
2016-08-01T12:55:21.631Z,26.22
2016-08-01T12:56:21.634Z,26.19
2016-08-01T12:57:21.647Z,26.24
2016-08-01T12:58:21.635Z,26.3
2016-08-01T12:59:21.634Z,26.27
2016-08-01T13:00:21.639Z,26.27